Time;durP1;ratioP1;P1;durP2;ratioP2;P2;SDS_P1;SDS_P2;PMS_P1;PMS_P2;Temp;Humidity;BMP_temperature;BMP_pressure;BME280_temperature;BME280_humidity;BME280_pressure;Samples;Min_cycle;Max_cycle;Signal;HPM_P1;HPM_P2
2021/12/29 00:00:52;;;;;;;0.00;0.00;;;6.30;99.90;226.50;231333.00;;;;5030591;28;20235;-72
2021/12/29 00:03:21;;;;;;;0.10;0.10;;;6.30;99.90;226.50;231333.00;;;;5029430;28;20248;-72
2021/12/29 00:05:49;;;;;;;0.10;0.10;;;6.30;99.90;226.50;231333.00;;;;5031002;28;20202;-72
2021/12/29 00:08:17;;;;;;;0.10;0.10;;;6.20;99.90;226.50;231333.00;;;;5014821;28;20203;-72
2021/12/29 00:10:46;;;;;;;0.10;0.10;;;6.30;99.90;226.50;231333.00;;;;5030830;28;20207;-72
2021/12/29 00:13:15;;;;;;;0.00;0.00;;;6.20;99.90;226.50;231333.00;;;;5030097;28;20616;-72
2021/12/29 00:15:45;;;;;;;0.10;0.10;;;6.20;99.90;226.50;231333.00;;;;5012329;28;20227;-72
2021/12/29 00:18:13;;;;;;;0.10;0.10;;;6.20;99.90;226.50;231333.00;;;;5007863;28;20585;-72
2021/12/29 00:20:41;;;;;;;0.10;0.10;;;6.20;99.90;226.50;231333.00;;;;5031054;28;20219;-72
2021/12/29 00:23:09;;;;;;;0.03;0.03;;;6.20;99.90;226.50;231333.00;;;;5033653;28;20199;-72
2021/12/29 00:25:41;;;;;;;0.10;0.10;;;6.20;99.90;226.50;231333.00;;;;5031902;28;20199;-72
2021/12/29 00:28:09;;;;;;;0.10;0.10;;;6.10;99.90;226.50;231333.00;;;;5016281;28;20254;-72
2021/12/29 00:30:37;;;;;;;0.10;0.10;;;6.20;99.90;226.50;231333.00;;;;4999388;28;20215;-72
2021/12/29 00:33:25;;;;;;;0.10;0.10;;;6.20;99.90;226.50;231333.00;;;;5016119;28;20207;-73
2021/12/29 00:36:11;;;;;;;0.08;0.08;;;6.10;99.90;226.50;231333.00;;;;5020192;28;20608;-73
2021/12/29 00:38:59;;;;;;;0.10;0.10;;;6.10;99.90;226.50;231333.00;;;;5006997;28;20314;-73
2021/12/29 00:41:53;;;;;;;0.10;0.10;;;6.20;99.90;226.50;231333.00;;;;5009937;28;20228;-74
2021/12/29 00:44:50;;;;;;;0.10;0.10;;;6.10;99.90;226.50;231333.00;;;;5005146;28;20215;-73
2021/12/29 00:47:19;;;;;;;0.10;0.10;;;6.10;99.90;226.50;231333.00;;;;5034805;28;20201;-73
2021/12/29 00:49:49;;;;;;;0.10;0.10;;;6.10;99.90;226.50;231333.00;;;;5018195;28;20214;-72
2021/12/29 00:52:17;;;;;;;0.10;0.10;;;6.10;99.90;226.50;231333.00;;;;5034302;28;20219;-72
2021/12/29 00:54:45;;;;;;;0.10;0.10;;;6.10;99.90;226.50;231333.00;;;;5011775;28;20278;-73
2021/12/29 00:57:13;;;;;;;0.10;0.10;;;6.10;99.90;226.50;231333.00;;;;5013914;28;20214;-73
2021/12/29 00:59:41;;;;;;;0.10;0.10;;;6.00;99.90;226.50;231333.00;;;;5016519;28;20206;-73
2021/12/29 01:02:09;;;;;;;0.10;0.10;;;6.00;99.90;226.50;231333.00;;;;5015860;28;20620;-73
2021/12/29 01:04:37;;;;;;;0.10;0.10;;;6.00;99.90;226.50;231333.00;;;;5024833;28;20819;-72
2021/12/29 01:07:07;;;;;;;0.05;0.05;;;6.00;99.90;226.50;231333.00;;;;5029653;28;20195;-72
2021/12/29 01:09:35;;;;;;;0.10;0.10;;;6.00;99.90;226.50;231333.00;;;;5015750;28;20252;-73
2021/12/29 01:12:04;;;;;;;0.10;0.10;;;6.00;99.90;226.50;231333.00;;;;5013816;28;20215;-73
2021/12/29 01:14:32;;;;;;;0.10;0.10;;;6.00;99.90;226.50;231333.00;;;;5027883;28;20215;-73
2021/12/29 01:17:00;;;;;;;0.10;0.10;;;6.00;99.90;226.50;231333.00;;;;5025870;28;20199;-73
2021/12/29 01:19:31;;;;;;;0.10;0.10;;;6.00;99.90;226.50;231333.00;;;;5024226;28;20215;-73
2021/12/29 01:22:02;;;;;;;0.10;0.10;;;6.00;99.90;226.50;231333.00;;;;5016026;28;20219;-74
2021/12/29 01:24:32;;;;;;;0.10;0.10;;;6.00;99.90;226.50;231333.00;;;;5021467;28;20188;-73
2021/12/29 01:27:01;;;;;;;0.10;0.10;;;5.90;99.90;226.50;231333.00;;;;5014569;28;20192;-73
2021/12/29 01:29:30;;;;;;;0.10;0.10;;;5.90;99.90;226.50;231333.00;;;;5019790;28;20257;-73
2021/12/29 01:31:59;;;;;;;0.10;0.10;;;5.90;99.90;226.50;231333.00;;;;5019213;28;20776;-73
2021/12/29 01:34:28;;;;;;;0.10;0.10;;;6.00;99.90;226.50;231333.00;;;;5020622;28;20231;-73
2021/12/29 01:36:57;;;;;;;0.10;0.10;;;6.00;99.90;226.50;231333.00;;;;5014342;28;20199;-73
2021/12/29 01:39:25;;;;;;;0.10;0.10;;;6.00;99.90;226.50;231333.00;;;;5027481;28;20195;-72
2021/12/29 01:41:58;;;;;;;0.03;0.03;;;6.10;99.90;226.50;231333.00;;;;5017005;28;20215;-72
2021/12/29 01:44:28;;;;;;;0.10;0.10;;;6.10;99.90;226.50;231333.00;;;;5013160;28;20250;-72
2021/12/29 01:46:58;;;;;;;0.10;0.10;;;6.00;99.90;226.50;231333.00;;;;5014231;28;20246;-72
2021/12/29 01:49:27;;;;;;;0.10;0.10;;;6.10;99.90;226.50;231333.00;;;;5027070;28;20635;-72
2021/12/29 01:52:09;;;;;;;0.10;0.10;;;6.10;99.90;226.50;231333.00;;;;5033300;28;20211;-72
2021/12/29 01:54:40;;;;;;;0.10;0.10;;;6.10;99.90;226.50;231333.00;;;;5033294;28;20222;-72
2021/12/29 01:57:11;;;;;;;0.10;0.10;;;6.10;99.90;226.50;231333.00;;;;5029276;28;20202;-72
2021/12/29 01:59:41;;;;;;;0.10;0.10;;;6.00;99.90;226.50;231333.00;;;;5028724;28;20218;-72
2021/12/29 02:02:14;;;;;;;0.10;0.10;;;6.00;99.90;226.50;231333.00;;;;5023927;28;20235;-72
2021/12/29 02:04:43;;;;;;;0.10;0.10;;;6.00;99.90;226.50;231333.00;;;;5014163;28;20279;-72
2021/12/29 02:07:11;;;;;;;0.00;0.00;;;6.00;99.90;226.50;231333.00;;;;5022019;28;20201;-72
2021/12/29 02:09:40;;;;;;;0.08;0.08;;;6.00;99.90;226.50;231333.00;;;;5011510;28;20229;-73
2021/12/29 02:12:11;;;;;;;0.10;0.10;;;6.00;99.90;226.50;231333.00;;;;5027120;28;20269;-73
2021/12/29 02:14:40;;;;;;;0.10;0.10;;;6.10;99.90;226.50;231333.00;;;;5016517;28;20196;-73
2021/12/29 02:17:08;;;;;;;0.08;0.08;;;6.10;99.90;226.50;231333.00;;;;5020996;28;20199;-73
2021/12/29 02:19:43;;;;;;;0.10;0.10;;;6.10;99.90;226.50;231333.00;;;;5021776;28;20191;-73
2021/12/29 02:22:23;;;;;;;0.10;0.10;;;6.10;99.90;226.50;231333.00;;;;5016865;28;20289;-73
2021/12/29 02:24:55;;;;;;;0.10;0.10;;;6.20;99.90;226.50;231333.00;;;;5007902;28;20206;-73
2021/12/29 02:27:24;;;;;;;0.10;0.10;;;6.10;99.90;226.50;231333.00;;;;5018491;28;20253;-73
2021/12/29 02:29:52;;;;;;;0.10;0.10;;;6.20;99.90;226.50;231333.00;;;;5013499;28;20731;-73
2021/12/29 02:32:23;;;;;;;0.00;0.00;;;6.10;99.90;226.50;231333.00;;;;5024173;28;20261;-73
2021/12/29 02:34:51;;;;;;;0.10;0.10;;;6.10;99.90;226.50;231333.00;;;;5014974;28;20203;-73
2021/12/29 02:37:22;;;;;;;0.10;0.10;;;6.10;99.90;226.50;231333.00;;;;5013233;28;20224;-73
2021/12/29 02:39:51;;;;;;;0.10;0.10;;;6.10;99.90;226.50;231333.00;;;;5006499;28;20203;-73
2021/12/29 02:42:25;;;;;;;0.10;0.10;;;6.10;99.90;226.50;231333.00;;;;5019885;28;20215;-73
2021/12/29 02:44:53;;;;;;;0.10;0.10;;;6.10;99.90;226.50;231333.00;;;;5030460;28;20253;-73
2021/12/29 02:47:21;;;;;;;0.10;0.10;;;6.10;99.90;226.50;231333.00;;;;5028078;28;20192;-73
2021/12/29 02:49:49;;;;;;;0.10;0.10;;;6.10;99.90;226.50;231333.00;;;;5013250;28;20234;-74
2021/12/29 02:52:19;;;;;;;0.10;0.10;;;6.10;99.90;226.50;231333.00;;;;5011022;28;20270;-73
2021/12/29 02:54:48;;;;;;;0.10;0.10;;;6.10;99.90;226.50;231333.00;;;;5013069;28;20196;-73
2021/12/29 02:57:16;;;;;;;0.10;0.10;;;6.10;99.90;226.50;231333.00;;;;5019877;28;20222;-73
2021/12/29 02:59:44;;;;;;;0.10;0.10;;;6.00;99.90;226.50;231333.00;;;;5025125;28;20218;-73
2021/12/29 03:02:12;;;;;;;0.10;0.10;;;6.00;99.90;226.50;231333.00;;;;5011021;28;20260;-73
2021/12/29 03:04:40;;;;;;;0.00;0.00;;;6.00;99.90;226.50;231333.00;;;;5012580;28;20677;-73
2021/12/29 03:07:08;;;;;;;0.03;0.03;;;6.00;99.90;226.50;231333.00;;;;5010751;28;20204;-73
2021/12/29 03:09:36;;;;;;;0.10;0.10;;;6.00;99.90;226.50;231333.00;;;;5011680;28;20565;-73
2021/12/29 03:12:07;;;;;;;0.00;0.00;;;6.00;99.90;226.50;231333.00;;;;5011422;28;20216;-73
2021/12/29 03:14:35;;;;;;;0.10;0.10;;;6.00;99.90;226.50;231333.00;;;;5006917;28;20200;-73
2021/12/29 03:17:04;;;;;;;0.10;0.10;;;6.00;99.90;226.50;231333.00;;;;5012357;28;20219;-73
2021/12/29 03:19:32;;;;;;;0.10;0.10;;;6.00;99.90;226.50;231333.00;;;;5012202;28;20569;-73
2021/12/29 03:22:00;;;;;;;0.10;0.10;;;6.00;99.90;226.50;231333.00;;;;5011358;28;20701;-74
2021/12/29 03:24:28;;;;;;;0.10;0.10;;;6.00;99.90;226.50;231333.00;;;;5012290;28;20192;-72
2021/12/29 03:26:56;;;;;;;0.10;0.10;;;6.00;99.90;226.50;231333.00;;;;5012143;28;20254;-73
2021/12/29 03:29:25;;;;;;;0.10;0.10;;;5.90;99.90;226.50;231333.00;;;;5011855;28;20202;-73
2021/12/29 03:31:53;;;;;;;0.10;0.10;;;5.90;99.90;226.50;231333.00;;;;5012148;28;20208;-73
2021/12/29 03:34:21;;;;;;;0.10;0.10;;;5.90;99.90;226.50;231333.00;;;;5012141;28;20192;-73
2021/12/29 03:36:49;;;;;;;0.10;0.10;;;5.90;99.90;226.50;231333.00;;;;5016520;28;20731;-73
2021/12/29 03:39:17;;;;;;;0.10;0.10;;;5.90;99.90;226.50;231333.00;;;;5012296;28;20678;-73
2021/12/29 03:41:45;;;;;;;0.10;0.10;;;5.90;99.90;226.50;231333.00;;;;5012279;28;20218;-73
2021/12/29 03:44:13;;;;;;;0.10;0.10;;;5.90;99.90;226.50;231333.00;;;;5012596;28;20255;-73
2021/12/29 03:46:43;;;;;;;0.10;0.10;;;5.90;99.90;226.50;231333.00;;;;5011791;28;20219;-73
2021/12/29 03:49:11;;;;;;;0.10;0.10;;;5.90;99.90;226.50;231333.00;;;;5011970;28;20242;-73
2021/12/29 03:51:39;;;;;;;0.10;0.10;;;5.90;99.90;226.50;231333.00;;;;5011804;28;20250;-73
2021/12/29 03:54:07;;;;;;;0.10;0.10;;;6.00;99.90;226.50;231333.00;;;;5012066;28;20558;-72
2021/12/29 03:56:35;;;;;;;0.10;0.10;;;6.00;99.90;226.50;231333.00;;;;5011102;28;20273;-73
2021/12/29 03:59:03;;;;;;;0.00;0.00;;;6.00;99.90;226.50;231333.00;;;;5029545;28;20202;-73
2021/12/29 04:01:31;;;;;;;0.05;0.05;;;6.10;99.90;226.50;231333.00;;;;5031453;28;20223;-73
2021/12/29 04:04:01;;;;;;;0.10;0.10;;;6.10;99.90;226.50;231333.00;;;;5025340;28;20195;-73
2021/12/29 04:06:29;;;;;;;0.10;0.10;;;6.10;99.90;226.50;231333.00;;;;5029456;28;20257;-73
2021/12/29 04:08:57;;;;;;;0.10;0.10;;;6.00;99.90;226.50;231333.00;;;;5034771;28;20191;-73
2021/12/29 04:11:25;;;;;;;0.10;0.10;;;6.10;99.90;226.50;231333.00;;;;5032511;28;20218;-72
2021/12/29 04:13:53;;;;;;;0.10;0.10;;;6.10;99.90;226.50;231333.00;;;;5030947;28;20202;-72
2021/12/29 04:16:21;;;;;;;0.10;0.10;;;6.10;99.90;226.50;231333.00;;;;5028951;28;20215;-73
2021/12/29 04:19:17;;;;;;;0.10;0.10;;;6.10;99.90;226.50;231333.00;;;;5030868;28;20270;-74
2021/12/29 04:21:48;;;;;;;0.10;0.10;;;6.10;99.90;226.50;231333.00;;;;5026248;28;20226;-73
2021/12/29 04:24:16;;;;;;;0.10;0.10;;;6.10;99.90;226.50;231333.00;;;;5028183;28;20195;-73
2021/12/29 04:26:44;;;;;;;0.10;0.10;;;6.10;99.90;226.50;231333.00;;;;5029469;28;20202;-73
2021/12/29 04:29:13;;;;;;;0.10;0.10;;;6.10;99.90;226.50;231333.00;;;;5019072;28;20204;-73
2021/12/29 04:31:43;;;;;;;0.10;0.10;;;6.10;99.90;226.50;231333.00;;;;5011575;28;20250;-73
2021/12/29 04:34:11;;;;;;;0.10;0.10;;;6.20;99.90;226.50;231333.00;;;;5020233;28;20202;-73
2021/12/29 04:36:40;;;;;;;0.10;0.10;;;6.10;99.90;226.50;231333.00;;;;5021264;28;20620;-73
2021/12/29 04:39:09;;;;;;;0.10;0.10;;;6.20;99.90;226.50;231333.00;;;;5023452;28;20192;-72
2021/12/29 04:41:37;;;;;;;0.10;0.10;;;6.30;99.90;226.50;231333.00;;;;5015050;28;20269;-72
2021/12/29 04:44:06;;;;;;;0.10;0.10;;;6.30;99.90;226.50;231333.00;;;;5010864;28;20254;-72
2021/12/29 04:46:38;;;;;;;0.10;0.10;;;6.20;99.90;226.50;231333.00;;;;5012864;28;20195;-73
2021/12/29 04:49:11;;;;;;;0.10;0.10;;;6.20;99.90;226.50;231333.00;;;;5004273;28;20760;-72
2021/12/29 04:51:47;;;;;;;0.10;0.10;;;6.10;99.90;226.50;231333.00;;;;5018273;28;20231;-74
2021/12/29 04:54:17;;;;;;;0.10;0.10;;;6.00;99.90;226.50;231333.00;;;;5013159;28;20194;-74
2021/12/29 04:56:45;;;;;;;0.10;0.10;;;6.00;99.90;226.50;231333.00;;;;5011547;28;20220;-74
2021/12/29 04:59:15;;;;;;;0.10;0.10;;;5.90;99.90;226.50;231333.00;;;;5027326;28;20598;-74
2021/12/29 05:01:45;;;;;;;0.10;0.10;;;5.90;99.90;226.50;231333.00;;;;5003806;28;20238;-72
2021/12/29 05:04:20;;;;;;;0.10;0.10;;;6.00;99.90;226.50;231333.00;;;;5013013;28;20676;-72
2021/12/29 05:09:35;;;;;;;0.08;0.08;;;6.00;99.90;226.50;231333.00;;;;5007354;28;20227;-72
2021/12/29 05:12:04;;;;;;;0.08;0.08;;;6.00;99.90;226.50;231333.00;;;;5013152;28;20223;-72
2021/12/29 05:14:32;;;;;;;0.10;0.10;;;6.00;99.90;226.50;231333.00;;;;5016295;28;20208;-72
2021/12/29 05:17:00;;;;;;;0.10;0.10;;;6.10;99.90;226.50;231333.00;;;;5015281;28;20265;-72
2021/12/29 05:19:28;;;;;;;0.10;0.10;;;6.10;99.90;226.50;231333.00;;;;5013608;28;20638;-72
2021/12/29 05:21:56;;;;;;;0.10;0.10;;;6.10;99.90;226.50;231333.00;;;;5019226;28;20218;-75
2021/12/29 05:24:24;;;;;;;0.10;0.10;;;6.10;99.90;226.50;231333.00;;;;5030709;28;20195;-72
2021/12/29 05:26:54;;;;;;;0.10;0.10;;;6.10;99.90;226.50;231333.00;;;;5021012;28;20199;-72
2021/12/29 05:29:24;;;;;;;0.10;0.10;;;6.10;99.90;226.50;231333.00;;;;5034443;28;20191;-72
2021/12/29 05:31:52;;;;;;;0.10;0.10;;;6.00;99.90;226.50;231333.00;;;;5031733;28;20269;-72
2021/12/29 05:34:20;;;;;;;0.10;0.10;;;6.00;99.90;226.50;231333.00;;;;5018084;28;20597;-73
2021/12/29 05:36:48;;;;;;;0.10;0.10;;;6.00;99.90;226.50;231333.00;;;;5019093;28;20721;-72
2021/12/29 05:39:16;;;;;;;0.10;0.10;;;6.00;99.90;226.50;231333.00;;;;5015072;28;20246;-72
2021/12/29 05:41:45;;;;;;;0.10;0.10;;;6.00;99.90;226.50;231333.00;;;;4998472;28;20220;-72
2021/12/29 05:44:14;;;;;;;0.10;0.10;;;5.90;99.90;226.50;231333.00;;;;5015088;28;20602;-72
2021/12/29 05:46:43;;;;;;;0.10;0.10;;;5.90;99.90;226.50;231333.00;;;;5015238;28;20187;-72
2021/12/29 05:49:12;;;;;;;0.10;0.10;;;6.00;99.90;226.50;231333.00;;;;5015316;28;20187;-72
2021/12/29 05:51:40;;;;;;;0.10;0.10;;;6.00;99.90;226.50;231333.00;;;;5017441;28;20616;-73
2021/12/29 05:54:08;;;;;;;0.10;0.10;;;6.00;99.90;226.50;231333.00;;;;5016231;28;20200;-72
2021/12/29 05:56:37;;;;;;;0.10;0.10;;;6.00;99.90;226.50;231333.00;;;;5031687;28;20188;-72
2021/12/29 05:59:06;;;;;;;0.10;0.10;;;5.90;99.90;226.50;231333.00;;;;5022035;28;20211;-73
2021/12/29 06:01:36;;;;;;;0.10;0.10;;;6.00;99.90;226.50;231333.00;;;;5022967;28;20281;-73
2021/12/29 06:04:04;;;;;;;0.10;0.10;;;6.00;99.90;226.50;231333.00;;;;5025641;28;20206;-73
2021/12/29 06:06:32;;;;;;;0.10;0.10;;;6.00;99.90;226.50;231333.00;;;;5034022;28;20204;-73
2021/12/29 06:09:00;;;;;;;0.10;0.10;;;6.00;99.90;226.50;231333.00;;;;5031923;28;20683;-73
2021/12/29 06:11:28;;;;;;;0.10;0.10;;;6.00;99.90;226.50;231333.00;;;;5032503;28;20220;-73
2021/12/29 06:13:56;;;;;;;0.00;0.00;;;6.10;99.90;226.50;231333.00;;;;5005197;28;20721;-72
2021/12/29 06:16:24;;;;;;;0.00;0.00;;;6.10;99.90;226.50;231333.00;;;;5020436;28;20246;-71
2021/12/29 06:18:53;;;;;;;0.10;0.10;;;6.00;99.90;226.50;231333.00;;;;5005582;28;20227;-72
2021/12/29 06:21:21;;;;;;;0.10;0.10;;;6.10;99.90;226.50;231333.00;;;;5006640;28;20220;-72
2021/12/29 06:23:49;;;;;;;0.10;0.10;;;6.10;99.90;226.50;231333.00;;;;5017714;28;20199;-72
2021/12/29 06:26:17;;;;;;;0.10;0.10;;;6.20;99.90;226.50;231333.00;;;;5033074;28;20221;-72
2021/12/29 06:28:46;;;;;;;0.10;0.10;;;6.10;99.90;226.50;231333.00;;;;5031474;28;20253;-72
2021/12/29 06:31:14;;;;;;;0.10;0.10;;;6.20;99.90;226.50;231333.00;;;;5028398;28;20277;-72
2021/12/29 06:33:42;;;;;;;0.10;0.10;;;6.30;99.90;226.50;231333.00;;;;5027196;28;20674;-72
2021/12/29 06:36:12;;;;;;;0.10;0.10;;;6.30;99.90;226.50;231333.00;;;;5023273;28;20597;-73
2021/12/29 06:38:40;;;;;;;0.10;0.10;;;6.40;99.90;226.50;231333.00;;;;5013581;28;20215;-72
2021/12/29 06:41:08;;;;;;;0.10;0.10;;;6.30;99.90;226.50;231333.00;;;;5021545;28;20206;-72
2021/12/29 06:43:36;;;;;;;0.05;0.05;;;6.30;99.90;226.50;231333.00;;;;5026376;28;20199;-72
2021/12/29 06:46:04;;;;;;;0.10;0.10;;;6.30;99.90;226.50;231333.00;;;;5025060;28;20195;-72
2021/12/29 06:48:32;;;;;;;0.10;0.10;;;6.30;99.90;226.50;231333.00;;;;5003073;28;20250;-72
2021/12/29 06:51:00;;;;;;;0.10;0.10;;;6.30;99.90;226.50;231333.00;;;;5025522;28;20272;-72
2021/12/29 06:53:31;;;;;;;0.10;0.10;;;6.30;99.90;226.50;231333.00;;;;5020967;28;20191;-72
2021/12/29 06:56:00;;;;;;;0.10;0.10;;;6.40;99.90;226.50;231333.00;;;;5022719;28;20200;-72
2021/12/29 06:58:28;;;;;;;0.10;0.10;;;6.30;99.90;226.50;231333.00;;;;5021616;28;20261;-73
2021/12/29 07:00:56;;;;;;;0.10;0.10;;;6.40;99.90;226.50;231333.00;;;;5028372;28;20223;-74
2021/12/29 07:03:25;;;;;;;0.10;0.10;;;6.40;99.90;226.50;231333.00;;;;5021218;28;20199;-75
2021/12/29 07:05:54;;;;;;;0.10;0.10;;;6.40;99.90;226.50;231333.00;;;;5023178;28;20196;-73
2021/12/29 07:08:22;;;;;;;0.10;0.10;;;6.40;99.90;226.50;231333.00;;;;5008982;28;20271;-75
2021/12/29 07:10:52;;;;;;;0.10;0.10;;;6.40;99.90;226.50;231333.00;;;;5016028;28;20249;-75
2021/12/29 07:13:20;;;;;;;0.10;0.10;;;6.50;99.90;226.50;231333.00;;;;5025581;28;20672;-75
2021/12/29 07:15:48;;;;;;;0.10;0.10;;;6.50;99.90;226.50;231333.00;;;;5024871;28;20207;-75
2021/12/29 07:18:16;;;;;;;0.10;0.10;;;6.50;99.90;226.50;231333.00;;;;5031375;28;20276;-74
2021/12/29 07:20:44;;;;;;;0.10;0.10;;;6.40;99.90;226.50;231333.00;;;;5032467;28;20214;-74
2021/12/29 07:23:13;;;;;;;0.10;0.10;;;6.50;99.90;226.50;231333.00;;;;5030397;28;20605;-73
2021/12/29 07:25:41;;;;;;;0.10;0.10;;;6.50;99.90;226.50;231333.00;;;;5028054;28;20200;-73
2021/12/29 07:28:10;;;;;;;0.10;0.10;;;6.50;99.90;226.50;231333.00;;;;5033049;28;20220;-74
2021/12/29 07:30:39;;;;;;;0.10;0.10;;;6.50;99.90;226.50;231333.00;;;;5022685;28;20219;-75
2021/12/29 07:33:07;;;;;;;0.10;0.10;;;6.50;99.90;226.50;231333.00;;;;5013762;28;20242;-74
2021/12/29 07:35:35;;;;;;;0.10;0.10;;;6.50;99.90;226.50;231333.00;;;;5005834;28;20196;-75
2021/12/29 07:38:03;;;;;;;0.10;0.10;;;6.50;99.90;226.50;231333.00;;;;5003192;28;20224;-74
2021/12/29 07:40:32;;;;;;;0.10;0.10;;;6.50;99.90;226.50;231333.00;;;;5029888;28;20227;-75
2021/12/29 07:43:00;;;;;;;0.10;0.10;;;6.50;99.90;226.50;231333.00;;;;5010486;28;20208;-75
2021/12/29 07:45:31;;;;;;;0.10;0.10;;;6.50;99.90;226.50;231333.00;;;;5017554;28;20208;-74
2021/12/29 07:48:00;;;;;;;0.10;0.10;;;6.50;99.90;226.50;231333.00;;;;5013688;28;20239;-74
2021/12/29 07:50:28;;;;;;;0.10;0.10;;;6.50;99.90;226.50;231333.00;;;;5008796;28;20191;-75
2021/12/29 07:52:58;;;;;;;0.00;0.00;;;6.60;99.90;226.50;231333.00;;;;5023234;28;20565;-75
2021/12/29 07:55:26;;;;;;;0.10;0.10;;;6.60;99.90;226.50;231333.00;;;;5013572;28;20184;-74
2021/12/29 07:57:55;;;;;;;0.10;0.10;;;6.60;99.90;226.50;231333.00;;;;5012253;28;20625;-74
2021/12/29 08:00:23;;;;;;;0.08;0.08;;;6.60;99.90;226.50;231333.00;;;;5018247;28;20633;-74
2021/12/29 08:02:53;;;;;;;0.10;0.10;;;6.70;99.90;226.50;231333.00;;;;5019004;28;20203;-76
2021/12/29 08:05:22;;;;;;;0.00;0.00;;;6.60;99.90;226.50;231333.00;;;;5015646;28;20191;-74
2021/12/29 08:07:50;;;;;;;0.10;0.10;;;6.70;99.90;226.50;231333.00;;;;5004188;28;20736;-75
2021/12/29 08:10:19;;;;;;;0.10;0.10;;;6.70;99.90;226.50;231333.00;;;;5018945;28;20195;-75
2021/12/29 08:12:47;;;;;;;0.10;0.10;;;6.80;99.90;226.50;231333.00;;;;5019400;28;20192;-75
2021/12/29 08:15:15;;;;;;;0.10;0.10;;;6.70;99.90;226.50;231333.00;;;;5017552;28;20731;-75
2021/12/29 08:17:44;;;;;;;0.10;0.10;;;6.70;99.90;226.50;231333.00;;;;5018238;28;20716;-75
2021/12/29 08:20:13;;;;;;;0.00;0.00;;;6.80;99.90;226.50;231333.00;;;;5033169;28;20222;-74
2021/12/29 08:22:41;;;;;;;0.10;0.10;;;6.80;99.90;226.50;231333.00;;;;5021097;28;20834;-75
2021/12/29 08:25:10;;;;;;;0.10;0.10;;;6.80;99.90;226.50;231333.00;;;;5036522;28;20191;-75
2021/12/29 08:27:38;;;;;;;0.00;0.00;;;6.80;99.90;226.50;231333.00;;;;5036952;28;20191;-74
2021/12/29 08:30:08;;;;;;;0.10;0.10;;;6.80;99.90;226.50;231333.00;;;;5032799;28;20593;-74
2021/12/29 08:32:36;;;;;;;0.10;0.10;;;6.90;99.90;226.50;231333.00;;;;5022444;28;20274;-74
2021/12/29 08:35:05;;;;;;;0.10;0.10;;;6.90;99.90;226.50;231333.00;;;;5019613;28;20188;-75
2021/12/29 08:37:35;;;;;;;0.10;0.10;;;6.90;99.90;226.50;231333.00;;;;5026288;28;20253;-74
2021/12/29 08:40:09;;;;;;;0.10;0.10;;;7.00;99.90;226.50;231333.00;;;;5022456;28;20627;-74
2021/12/29 08:42:40;;;;;;;0.05;0.05;;;7.00;99.90;226.50;231333.00;;;;5033860;28;20190;-75
2021/12/29 08:45:11;;;;;;;0.10;0.10;;;7.00;99.90;226.50;231333.00;;;;5025346;28;20195;-74
2021/12/29 08:47:39;;;;;;;0.10;0.10;;;7.00;99.90;226.50;231333.00;;;;5028501;28;20229;-74
2021/12/29 08:50:11;;;;;;;0.10;0.10;;;7.00;99.90;226.50;231333.00;;;;5034806;28;20211;-74
2021/12/29 08:52:41;;;;;;;0.10;0.10;;;7.00;99.90;226.50;231333.00;;;;5032533;28;20192;-74
2021/12/29 08:55:11;;;;;;;0.10;0.10;;;7.10;99.90;226.50;231333.00;;;;5033010;28;20555;-74
2021/12/29 08:57:40;;;;;;;0.10;0.10;;;7.10;99.90;226.50;231333.00;;;;5012380;28;20199;-74
2021/12/29 09:00:12;;;;;;;0.10;0.10;;;7.10;99.90;226.50;231333.00;;;;5026791;28;20434;-75
2021/12/29 09:02:41;;;;;;;0.10;0.10;;;7.10;99.90;226.50;231333.00;;;;5004748;28;20247;-74
2021/12/29 09:05:12;;;;;;;0.10;0.10;;;7.10;99.90;226.50;231333.00;;;;5022846;28;20204;-74
2021/12/29 09:07:43;;;;;;;0.08;0.08;;;7.10;99.90;226.50;231333.00;;;;5018182;28;20705;-73
2021/12/29 09:10:13;;;;;;;0.00;0.00;;;7.20;99.90;226.50;231333.00;;;;5018515;28;20199;-74
2021/12/29 09:12:41;;;;;;;0.10;0.10;;;7.20;99.90;226.50;231333.00;;;;5017653;28;20595;-74
2021/12/29 09:15:10;;;;;;;0.10;0.10;;;7.20;99.90;226.50;231333.00;;;;5029153;28;20730;-73
2021/12/29 09:17:38;;;;;;;0.10;0.10;;;7.30;99.90;226.50;231333.00;;;;5034182;28;20187;-75
2021/12/29 09:20:13;;;;;;;0.10;0.10;;;7.30;99.90;226.50;231333.00;;;;5025088;28;20215;-74
2021/12/29 09:22:44;;;;;;;0.10;0.10;;;7.30;99.90;226.50;231333.00;;;;5016998;28;20257;-74
2021/12/29 09:25:12;;;;;;;0.10;0.10;;;7.40;99.90;226.50;231333.00;;;;5015274;28;20783;-74
2021/12/29 09:27:39;;;;;;;0.10;0.10;;;7.40;99.90;226.50;231333.00;;;;5014651;28;20203;-74
2021/12/29 09:30:09;;;;;;;0.10;0.10;;;7.50;99.90;226.50;231333.00;;;;5016430;28;20245;-74
2021/12/29 09:32:37;;;;;;;0.10;0.10;;;7.50;99.90;226.50;231333.00;;;;5030192;28;20203;-74
2021/12/29 09:35:07;;;;;;;0.10;0.10;;;7.50;99.90;226.50;231333.00;;;;5017052;28;20200;-74
2021/12/29 09:37:34;;;;;;;0.10;0.10;;;7.50;99.90;226.50;231333.00;;;;5014989;28;20196;-75
2021/12/29 09:40:06;;;;;;;0.05;0.05;;;7.60;99.90;226.50;231333.00;;;;5015634;28;20281;-74
2021/12/29 09:42:34;;;;;;;0.10;0.10;;;7.50;99.90;226.50;231333.00;;;;5017020;28;20258;-74
2021/12/29 09:45:03;;;;;;;0.10;0.10;;;7.60;99.90;226.50;231333.00;;;;5018483;28;20215;-74
2021/12/29 09:47:31;;;;;;;0.10;0.10;;;7.60;99.90;226.50;231333.00;;;;5035663;28;20657;-74
2021/12/29 09:50:00;;;;;;;0.10;0.10;;;7.70;99.90;226.50;231333.00;;;;5019473;28;20250;-71
2021/12/29 09:52:33;;;;;;;0.10;0.10;;;7.70;99.90;226.50;231333.00;;;;5022686;28;20303;-71
2021/12/29 09:55:04;;;;;;;0.05;0.05;;;7.80;99.90;226.50;231333.00;;;;5014625;28;20199;-72
2021/12/29 09:57:34;;;;;;;0.00;0.00;;;7.80;99.90;226.50;231333.00;;;;5031889;28;20260;-72
2021/12/29 10:00:05;;;;;;;0.00;0.00;;;7.80;99.90;226.50;231333.00;;;;4998163;28;20231;-72
2021/12/29 10:02:35;;;;;;;0.10;0.10;;;7.90;99.90;226.50;231333.00;;;;5019533;28;20232;-72
2021/12/29 10:05:05;;;;;;;0.10;0.10;;;7.90;99.90;226.50;231333.00;;;;5010942;28;20269;-73
2021/12/29 10:07:34;;;;;;;0.10;0.10;;;8.00;99.90;226.50;231333.00;;;;5016499;28;20204;-72
2021/12/29 10:10:03;;;;;;;0.10;0.10;;;8.00;99.90;226.50;231333.00;;;;5009941;28;20196;-72
2021/12/29 10:12:42;;;;;;;0.10;0.10;;;8.00;99.90;226.50;231333.00;;;;5010460;28;20224;-73
2021/12/29 10:15:11;;;;;;;0.00;0.00;;;8.00;99.90;226.50;231333.00;;;;5007601;28;20218;-72
2021/12/29 10:17:39;;;;;;;0.10;0.10;;;8.00;99.90;226.50;231333.00;;;;5023248;28;20191;-72
2021/12/29 10:20:12;;;;;;;0.10;0.10;;;8.00;99.90;226.50;231333.00;;;;5014220;28;20223;-72
2021/12/29 10:22:42;;;;;;;0.10;0.10;;;8.00;99.90;226.50;231333.00;;;;5014917;28;20262;-72
2021/12/29 10:25:14;;;;;;;0.00;0.00;;;8.00;99.90;226.50;231333.00;;;;5014742;28;20204;-72
2021/12/29 10:27:44;;;;;;;0.10;0.10;;;8.00;99.90;226.50;231333.00;;;;5012286;28;20200;-72
2021/12/29 10:30:21;;;;;;;0.10;0.10;;;8.00;99.90;226.50;231333.00;;;;5011184;28;20195;-72
2021/12/29 10:32:52;;;;;;;0.10;0.10;;;8.00;99.90;226.50;231333.00;;;;5011988;28;20209;-72
2021/12/29 10:35:24;;;;;;;0.10;0.10;;;8.00;99.90;226.50;231333.00;;;;5012700;28;20195;-72
2021/12/29 10:38:08;;;;;;;0.10;0.10;;;8.00;99.90;226.50;231333.00;;;;5008661;28;20196;-72
2021/12/29 10:40:36;;;;;;;0.10;0.10;;;8.10;99.90;226.50;231333.00;;;;4993753;28;20259;-72
2021/12/29 10:43:06;;;;;;;0.10;0.10;;;8.00;99.90;226.50;231333.00;;;;4989738;28;20254;-72
2021/12/29 10:45:38;;;;;;;0.10;0.10;;;8.00;99.90;226.50;231333.00;;;;4993511;28;20535;-72
2021/12/29 10:48:20;;;;;;;0.10;0.10;;;8.10;99.90;226.50;231333.00;;;;5006174;28;20626;-72
2021/12/29 10:50:57;;;;;;;0.10;0.10;;;8.10;99.90;226.50;231333.00;;;;4995415;28;20232;-73
2021/12/29 10:53:25;;;;;;;0.00;0.00;;;8.10;99.90;226.50;231333.00;;;;4998042;28;20257;-72
2021/12/29 10:55:54;;;;;;;0.10;0.10;;;8.10;99.90;226.50;231333.00;;;;5013303;28;20192;-72
2021/12/29 10:58:26;;;;;;;0.10;0.10;;;8.10;99.90;226.50;231333.00;;;;5013211;28;20211;-72
2021/12/29 11:01:03;;;;;;;0.10;0.10;;;8.20;99.90;226.50;231333.00;;;;5013255;28;20227;-72